createdAt,value
2022-10-23T00:02:37.049Z,13.93
2022-10-23T00:05:40.807Z,14.00
2022-10-23T00:08:42.961Z,13.40
2022-10-23T00:11:47.748Z,14.35
2022-10-23T00:14:49.579Z,14.13
2022-10-23T00:17:51.446Z,13.07
2022-10-23T00:20:53.351Z,14.04
2022-10-23T00:23:55.282Z,13.82
2022-10-23T00:26:57.405Z,13.55
2022-10-23T00:29:59.468Z,13.89
2022-10-23T00:33:01.320Z,14.37
2022-10-23T00:36:07.264Z,13.17
2022-10-23T00:39:09.213Z,14.13
2022-10-23T00:42:12.733Z,14.20
2022-10-23T00:45:19.645Z,13.59
2022-10-23T00:48:21.709Z,13.82
2022-10-23T00:51:23.682Z,13.16
2022-10-23T00:54:25.917Z,13.32
2022-10-23T01:00:46.365Z,13.13
2022-10-23T01:03:48.237Z,13.51
2022-10-23T01:07:04.590Z,13.60
2022-10-23T01:10:10.552Z,13.43
2022-10-23T01:13:17.359Z,13.26
2022-10-23T01:16:24.198Z,12.90
2022-10-23T01:19:44.945Z,13.70
2022-10-23T01:23:05.696Z,14.38
2022-10-23T01:26:16.841Z,13.27
2022-10-23T01:29:21.295Z,13.19
2022-10-23T01:32:23.345Z,13.01
2022-10-23T01:35:29.714Z,13.59
2022-10-23T01:38:36.281Z,13.25
2022-10-23T01:41:40.633Z,13.86
2022-10-23T01:44:51.606Z,13.77
2022-10-23T01:47:53.724Z,14.53
2022-10-23T01:50:55.948Z,13.78
2022-10-23T01:53:58.478Z,13.89
2022-10-23T01:57:00.481Z,13.69
2022-10-23T02:00:05.082Z,13.75
2022-10-23T02:03:06.966Z,14.31
2022-10-23T02:06:08.954Z,13.20
2022-10-23T02:09:10.781Z,12.98
2022-10-23T02:12:13.930Z,13.70
2022-10-23T02:15:29.220Z,14.02
2022-10-23T02:18:49.291Z,12.83
2022-10-23T02:21:51.117Z,13.04
2022-10-23T02:24:56.576Z,14.02
2022-10-23T02:27:58.539Z,14.15
2022-10-23T02:31:00.688Z,14.31
2022-10-23T02:34:03.046Z,13.34
2022-10-23T02:37:04.908Z,13.53
2022-10-23T02:40:07.064Z,14.27
2022-10-23T02:43:11.276Z,14.25
2022-10-23T02:46:25.209Z,13.51
2022-10-23T02:49:45.086Z,13.24
2022-10-23T02:53:10.201Z,14.11
2022-10-23T02:56:14.773Z,14.16
2022-10-23T02:59:19.983Z,13.78
2022-10-23T03:02:23.739Z,13.66
2022-10-23T03:05:32.631Z,13.43
2022-10-23T03:08:41.425Z,13.25
2022-10-23T03:11:43.261Z,13.44
2022-10-23T03:14:45.076Z,13.72
2022-10-23T03:17:46.896Z,14.04
2022-10-23T03:20:48.896Z,14.06
2022-10-23T03:23:50.867Z,13.70
2022-10-23T03:26:52.931Z,13.61
2022-10-23T03:29:54.792Z,13.76
2022-10-23T03:32:56.647Z,13.53
2022-10-23T03:35:58.518Z,13.47
2022-10-23T03:39:00.329Z,12.74
2022-10-23T03:42:02.131Z,12.68
2022-10-23T03:45:04.382Z,12.78
2022-10-23T03:48:06.683Z,13.02
2022-10-23T03:51:08.621Z,12.66
2022-10-23T03:54:10.496Z,12.41
2022-10-23T03:57:12.638Z,12.64
2022-10-23T04:00:14.580Z,13.07
2022-10-23T04:03:16.429Z,13.67
2022-10-23T04:06:18.266Z,13.78
2022-10-23T04:09:20.147Z,12.41
2022-10-23T04:12:22.360Z,13.20
2022-10-23T04:15:24.253Z,13.53
2022-10-23T04:18:26.240Z,13.86
2022-10-23T04:21:28.040Z,13.28
2022-10-23T04:24:30.055Z,12.35
2022-10-23T04:27:31.885Z,11.92
2022-10-23T04:30:34.416Z,13.37
2022-10-23T04:33:36.291Z,13.16
2022-10-23T04:36:38.178Z,12.86
2022-10-23T04:39:40.064Z,12.03
2022-10-23T04:42:42.216Z,12.41
2022-10-23T04:45:44.485Z,13.09
2022-10-23T04:48:46.457Z,12.90
2022-10-23T04:51:48.312Z,12.95
2022-10-23T04:54:50.159Z,12.43
2022-10-23T04:57:52.342Z,12.39
2022-10-23T05:00:54.296Z,12.08
2022-10-23T05:03:56.979Z,12.29
2022-10-23T05:06:58.961Z,12.01
2022-10-23T05:10:00.814Z,12.53
2022-10-23T05:13:02.748Z,13.14
2022-10-23T05:16:04.852Z,12.61
2022-10-23T05:19:07.622Z,12.62
2022-10-23T05:22:09.869Z,12.34
2022-10-23T05:25:12.238Z,12.28
2022-10-23T05:28:14.301Z,13.13
2022-10-23T05:31:16.206Z,13.73
2022-10-23T05:34:18.689Z,13.76
2022-10-23T05:37:20.618Z,13.58
2022-10-23T05:40:22.506Z,13.73
2022-10-23T05:43:26.079Z,12.70
2022-10-23T05:46:29.015Z,12.33
2022-10-23T05:49:30.839Z,12.46
2022-10-23T05:52:32.633Z,13.65
2022-10-23T05:55:34.878Z,13.83
2022-10-23T05:58:36.893Z,13.82
2022-10-23T06:01:38.854Z,14.01
2022-10-23T06:04:41.120Z,14.27
2022-10-23T06:07:43.846Z,14.59
2022-10-23T06:10:45.923Z,14.84
2022-10-23T06:13:50.694Z,15.28
2022-10-23T06:16:52.845Z,16.04
2022-10-23T06:20:00.886Z,16.09
2022-10-23T06:23:02.887Z,16.08
2022-10-23T06:26:05.103Z,16.59
2022-10-23T06:29:07.029Z,17.08
2022-10-23T06:32:09.023Z,17.31
2022-10-23T06:35:10.843Z,16.88
2022-10-23T06:38:13.500Z,16.15
2022-10-23T06:41:20.195Z,16.93
2022-10-23T06:44:22.005Z,17.44
2022-10-23T06:47:23.954Z,19.54
2022-10-23T06:50:26.112Z,17.73
2022-10-23T06:53:28.290Z,17.91
2022-10-23T06:56:30.445Z,19.16
2022-10-23T06:59:32.610Z,17.47
2022-10-23T07:02:34.488Z,18.74
2022-10-23T07:05:36.408Z,17.93
2022-10-23T07:08:38.230Z,20.11
2022-10-23T07:11:40.070Z,19.90
2022-10-23T07:14:41.930Z,18.53
2022-10-23T07:17:43.797Z,17.47
2022-10-23T07:20:49.442Z,17.89
2022-10-23T07:23:51.269Z,16.84
2022-10-23T07:26:53.107Z,16.47
2022-10-23T07:29:54.980Z,16.81
2022-10-23T07:32:56.782Z,16.35
2022-10-23T07:35:58.678Z,15.79
2022-10-23T07:39:00.480Z,14.84
2022-10-23T07:42:02.772Z,14.37
2022-10-23T07:45:05.291Z,14.25
2022-10-23T07:48:07.857Z,14.16
2022-10-23T07:51:12.256Z,13.98
2022-10-23T07:54:14.215Z,13.97
2022-10-23T07:57:16.059Z,14.28
2022-10-23T08:00:17.874Z,14.12
2022-10-23T08:03:20.416Z,14.05
2022-10-23T08:06:22.466Z,15.40
2022-10-23T08:09:24.336Z,14.69
2022-10-23T08:12:26.244Z,14.02
2022-10-23T08:15:28.050Z,14.16
2022-10-23T08:18:29.871Z,14.26
2022-10-23T08:21:31.871Z,14.76
2022-10-23T08:24:33.743Z,14.66
2022-10-23T08:27:35.581Z,14.75
2022-10-23T08:30:37.899Z,15.06
2022-10-23T08:33:40.159Z,15.65
2022-10-23T08:36:42.195Z,15.98
2022-10-23T08:39:44.112Z,15.73
2022-10-23T08:42:47.142Z,15.75
2022-10-23T08:45:50.074Z,15.43
2022-10-23T08:48:52.563Z,15.77
2022-10-23T08:51:55.770Z,15.97
2022-10-23T08:55:14.192Z,16.15
2022-10-23T08:58:23.464Z,16.21
2022-10-23T09:01:28.626Z,16.86
2022-10-23T09:04:30.681Z,15.46
2022-10-23T09:07:35.596Z,15.95
2022-10-23T09:11:06.899Z,16.90
2022-10-23T09:14:08.701Z,17.31
2022-10-23T09:17:17.331Z,17.19
2022-10-23T09:20:20.388Z,16.44
2022-10-23T09:23:22.946Z,16.35
2022-10-23T09:26:24.817Z,16.74
2022-10-23T09:29:28.461Z,17.51
2022-10-23T09:32:33.892Z,17.18
2022-10-23T09:35:35.794Z,16.93
2022-10-23T09:38:37.587Z,17.85
2022-10-23T09:41:39.918Z,17.74
2022-10-23T09:44:47.771Z,17.28
2022-10-23T09:47:49.585Z,16.62
2022-10-23T09:51:17.799Z,17.18
2022-10-23T09:54:21.378Z,16.67
2022-10-23T09:57:30.932Z,17.68
2022-10-23T10:00:32.957Z,17.69
2022-10-23T10:03:34.979Z,17.61
2022-10-23T10:06:37.198Z,17.34
2022-10-23T10:09:39.153Z,18.35
2022-10-23T10:12:41.368Z,18.54
2022-10-23T10:15:50.987Z,19.03
2022-10-23T10:18:56.348Z,18.44
2022-10-23T10:22:16.605Z,19.71
2022-10-23T10:25:21.518Z,20.31
2022-10-23T10:28:45.691Z,19.65
2022-10-23T10:31:56.674Z,19.97
2022-10-23T10:34:58.857Z,18.56
2022-10-23T10:38:09.908Z,19.71
2022-10-23T10:41:38.125Z,19.87
2022-10-23T10:45:04.498Z,18.49
2022-10-23T10:48:14.213Z,18.06
2022-10-23T10:51:36.288Z,17.80
2022-10-23T10:54:59.702Z,17.52
2022-10-23T10:58:03.665Z,17.46
2022-10-23T11:01:11.593Z,18.73
2022-10-23T11:04:14.713Z,19.43
2022-10-23T11:07:19.550Z,18.43
2022-10-23T11:10:21.634Z,18.91
2022-10-23T11:13:27.632Z,18.02
2022-10-23T11:16:30.472Z,19.60
2022-10-23T11:19:55.223Z,19.04
2022-10-23T11:23:09.371Z,21.03
2022-10-23T11:26:29.584Z,19.94
2022-10-23T11:29:51.800Z,19.36
2022-10-23T11:33:08.307Z,19.03
2022-10-23T11:36:17.930Z,19.39
2022-10-23T11:39:19.891Z,19.04
2022-10-23T11:42:32.522Z,20.17
2022-10-23T11:45:38.317Z,19.78
2022-10-23T11:48:41.181Z,19.65
2022-10-23T11:51:42.970Z,18.00
2022-10-23T11:54:44.831Z,17.93
2022-10-23T11:57:59.841Z,19.56
2022-10-23T12:01:03.385Z,18.61
2022-10-23T12:04:14.627Z,18.54
2022-10-23T12:07:17.114Z,18.05
2022-10-23T12:10:20.558Z,19.73
2022-10-23T12:13:34.578Z,18.65
2022-10-23T12:16:36.757Z,18.26
2022-10-23T12:19:43.882Z,18.91
2022-10-23T12:22:56.046Z,19.08
2022-10-23T12:26:16.666Z,18.07
2022-10-23T12:29:37.027Z,19.20
2022-10-23T12:32:44.762Z,19.29
2022-10-23T12:35:49.913Z,20.20
2022-10-23T12:38:51.984Z,19.25
2022-10-23T12:41:53.804Z,19.42
2022-10-23T12:45:02.368Z,18.60
2022-10-23T12:48:04.438Z,18.68
2022-10-23T12:51:06.392Z,20.08
2022-10-23T12:54:18.270Z,19.31
2022-10-23T12:57:28.145Z,18.84
2022-10-23T13:00:31.128Z,19.26
2022-10-23T13:03:33.833Z,18.79
2022-10-23T13:06:36.042Z,20.59
2022-10-23T13:09:46.856Z,19.28
2022-10-23T13:13:05.337Z,20.75
2022-10-23T13:16:33.707Z,23.28
2022-10-23T13:19:35.737Z,24.36
2022-10-23T13:22:39.971Z,23.60
2022-10-23T13:25:41.937Z,21.84
2022-10-23T13:28:44.935Z,21.14
2022-10-23T13:31:46.931Z,19.29
2022-10-23T13:35:03.654Z,19.98
2022-10-23T13:38:12.330Z,20.24
2022-10-23T13:41:20.213Z,19.89
2022-10-23T13:44:22.786Z,19.75
2022-10-23T13:47:24.823Z,19.70
2022-10-23T13:50:26.709Z,19.59
2022-10-23T13:53:30.528Z,18.38
2022-10-23T13:56:32.415Z,19.40
2022-10-23T13:59:34.492Z,19.79
2022-10-23T14:02:36.366Z,19.97
2022-10-23T14:05:38.262Z,19.81
2022-10-23T14:08:40.159Z,19.59
2022-10-23T14:11:42.200Z,19.61
2022-10-23T14:14:44.105Z,19.53
2022-10-23T14:17:45.896Z,19.32
2022-10-23T14:20:48.365Z,18.61
2022-10-23T14:23:50.640Z,18.57
2022-10-23T14:26:52.567Z,19.07
2022-10-23T14:29:54.401Z,18.84
2022-10-23T14:32:56.373Z,19.56
2022-10-23T14:35:58.245Z,19.84
2022-10-23T14:39:00.619Z,19.61
2022-10-23T14:42:02.531Z,19.51
2022-10-23T14:45:04.825Z,19.34
2022-10-23T14:48:06.764Z,19.37
2022-10-23T14:51:15.998Z,18.77
2022-10-23T14:54:18.002Z,18.01
2022-10-23T14:57:21.882Z,18.70
2022-10-23T15:00:24.129Z,18.16
2022-10-23T15:03:26.498Z,19.56
2022-10-23T15:06:28.461Z,19.41
2022-10-23T15:09:32.750Z,18.26
2022-10-23T15:12:37.954Z,19.10
2022-10-23T15:15:39.904Z,19.63
2022-10-23T15:18:41.746Z,19.03
2022-10-23T15:21:43.984Z,19.20
2022-10-23T15:24:46.480Z,19.19
2022-10-23T15:27:48.484Z,19.08
2022-10-23T15:30:50.382Z,19.85
2022-10-23T15:33:52.392Z,19.40
2022-10-23T15:36:54.625Z,19.72
2022-10-23T15:40:01.412Z,19.33
2022-10-23T15:43:05.305Z,20.14
2022-10-23T15:46:07.123Z,20.08
2022-10-23T15:49:09.083Z,19.97
2022-10-23T15:55:12.784Z,20.16
2022-10-23T15:58:14.664Z,19.64
2022-10-23T16:01:16.584Z,20.23
2022-10-23T16:04:18.617Z,20.28
2022-10-23T16:07:20.696Z,20.10
2022-10-23T16:10:23.542Z,20.25
2022-10-23T16:13:25.790Z,20.18
2022-10-23T16:16:28.124Z,20.24
2022-10-23T16:19:30.031Z,19.79
2022-10-23T16:22:32.078Z,19.56
2022-10-23T16:25:37.312Z,19.00
2022-10-23T16:28:39.126Z,19.59
2022-10-23T16:31:41.263Z,19.81
2022-10-23T16:34:43.111Z,20.33
2022-10-23T16:37:45.139Z,19.96
2022-10-23T16:40:51.241Z,19.83
2022-10-23T16:43:53.297Z,19.62
2022-10-23T16:46:55.301Z,19.66
2022-10-23T16:49:57.364Z,19.48
2022-10-23T16:52:59.520Z,19.41
2022-10-23T16:56:03.409Z,19.52
2022-10-23T16:59:05.714Z,19.41
2022-10-23T17:02:09.013Z,19.39
2022-10-23T17:05:11.087Z,19.28
2022-10-23T17:08:12.953Z,19.11
2022-10-23T17:11:20.817Z,19.05
2022-10-23T17:14:25.086Z,18.86
2022-10-23T17:17:26.935Z,18.98
2022-10-23T17:20:28.779Z,19.10
2022-10-23T17:23:30.800Z,18.98
2022-10-23T17:26:33.120Z,18.75
2022-10-23T17:29:35.275Z,18.11
2022-10-23T17:32:37.107Z,18.30
2022-10-23T17:35:39.679Z,18.05
2022-10-23T17:38:41.785Z,18.10
2022-10-23T17:41:44.207Z,18.30
2022-10-23T17:44:46.132Z,18.87
2022-10-23T17:47:48.145Z,18.92
2022-10-23T17:50:50.116Z,18.70
2022-10-23T17:53:52.684Z,18.69
2022-10-23T17:56:54.838Z,18.04
2022-10-23T17:59:56.681Z,18.69
2022-10-23T18:02:58.719Z,18.80
2022-10-23T18:06:08.056Z,18.78
2022-10-23T18:09:10.003Z,18.40
2022-10-23T18:12:11.947Z,19.44
2022-10-23T18:15:13.806Z,18.71
2022-10-23T18:18:15.675Z,19.06
2022-10-23T18:21:18.151Z,19.21
2022-10-23T18:24:19.980Z,18.37
2022-10-23T18:27:21.888Z,19.29
2022-10-23T18:30:23.736Z,19.55
2022-10-23T18:33:26.578Z,19.25
2022-10-23T18:36:29.760Z,18.95
2022-10-23T18:39:31.819Z,18.61
2022-10-23T18:42:35.077Z,18.62
2022-10-23T18:45:37.309Z,18.45
2022-10-23T18:48:39.255Z,18.44
2022-10-23T18:51:41.158Z,18.72
2022-10-23T18:54:43.167Z,17.79
2022-10-23T18:57:45.458Z,18.19
2022-10-23T19:00:47.663Z,18.48
2022-10-23T19:03:50.260Z,18.56
2022-10-23T19:06:52.188Z,18.76
2022-10-23T19:09:54.927Z,18.84
2022-10-23T19:12:56.766Z,18.34
2022-10-23T19:15:59.423Z,18.11
2022-10-23T19:19:03.408Z,18.58
2022-10-23T19:22:07.379Z,18.58
2022-10-23T19:25:15.286Z,18.52
2022-10-23T19:28:17.321Z,17.66
2022-10-23T19:31:19.330Z,18.08
2022-10-23T19:34:22.664Z,18.12
2022-10-23T19:37:24.753Z,18.04
2022-10-23T19:40:26.822Z,17.89
2022-10-23T19:43:29.034Z,18.64
2022-10-23T19:46:30.930Z,18.60
2022-10-23T19:49:32.835Z,18.51
2022-10-23T19:52:34.845Z,18.06
2022-10-23T19:55:36.774Z,18.94
2022-10-23T19:58:38.921Z,19.25
2022-10-23T20:01:43.856Z,19.33
2022-10-23T20:04:48.352Z,19.00
2022-10-23T20:07:51.417Z,19.45
2022-10-23T20:10:53.394Z,19.47
2022-10-23T20:13:55.592Z,19.63
2022-10-23T20:16:57.449Z,19.10
2022-10-23T20:19:59.265Z,19.35
2022-10-23T20:23:01.201Z,19.44
2022-10-23T20:26:04.206Z,19.84
2022-10-23T20:29:06.046Z,19.46
2022-10-23T20:32:08.234Z,19.63
2022-10-23T20:35:10.031Z,19.54
2022-10-23T20:38:11.906Z,19.60
2022-10-23T20:41:13.853Z,19.16
2022-10-23T20:47:18.866Z,19.19
2022-10-23T20:50:21.020Z,19.43
2022-10-23T20:53:22.997Z,19.00
2022-10-23T20:56:31.064Z,19.06
2022-10-23T20:59:34.231Z,19.12
2022-10-23T21:02:36.127Z,19.11
2022-10-23T21:05:38.297Z,19.07
2022-10-23T21:08:40.432Z,18.90
2022-10-23T21:11:42.329Z,19.05
2022-10-23T21:14:44.161Z,18.88
2022-10-23T21:17:49.134Z,18.84
2022-10-23T21:20:51.573Z,18.52
2022-10-23T21:23:54.582Z,19.14
2022-10-23T21:26:56.420Z,18.22
2022-10-23T21:29:58.370Z,17.79
2022-10-23T21:33:00.178Z,18.74
2022-10-23T21:36:13.410Z,19.12
2022-10-23T21:39:16.072Z,19.05
2022-10-23T21:42:19.301Z,17.58
2022-10-23T21:45:21.351Z,17.72
2022-10-23T21:48:23.189Z,18.40
2022-10-23T21:51:29.579Z,18.67
2022-10-23T21:54:31.405Z,19.24
2022-10-23T21:57:33.486Z,18.84
2022-10-23T22:00:35.341Z,18.53
2022-10-23T22:03:37.291Z,18.81
2022-10-23T22:06:39.198Z,19.25
2022-10-23T22:09:41.177Z,19.18
2022-10-23T22:12:43.061Z,18.88
2022-10-23T22:18:51.590Z,19.18
2022-10-23T22:21:53.409Z,18.83
2022-10-23T22:24:55.345Z,19.09
2022-10-23T22:27:57.280Z,19.20
2022-10-23T22:30:59.832Z,19.09
2022-10-23T22:34:13.095Z,18.92
2022-10-23T22:37:24.002Z,18.69
2022-10-23T22:40:25.830Z,18.62
2022-10-23T22:43:27.982Z,18.51
2022-10-23T22:46:29.999Z,18.53
2022-10-23T22:49:31.955Z,18.63
2022-10-23T22:52:33.793Z,18.70
2022-10-23T22:55:36.834Z,18.82
2022-10-23T22:58:38.742Z,18.48
2022-10-23T23:01:41.882Z,18.61
2022-10-23T23:04:43.828Z,18.80
2022-10-23T23:07:45.971Z,18.66
2022-10-23T23:10:55.034Z,18.45
2022-10-23T23:13:56.961Z,18.43
2022-10-23T23:16:59.147Z,17.67
2022-10-23T23:20:00.955Z,17.67
2022-10-23T23:23:03.045Z,18.32
2022-10-23T23:26:05.817Z,18.31
2022-10-23T23:29:07.693Z,18.54
2022-10-23T23:32:10.321Z,18.31
2022-10-23T23:35:12.166Z,18.33
2022-10-23T23:38:14.016Z,18.50
2022-10-23T23:41:16.745Z,18.19
2022-10-23T23:44:18.656Z,18.40
2022-10-23T23:47:20.564Z,18.58
2022-10-23T23:50:22.633Z,18.46
2022-10-23T23:53:24.537Z,17.97
2022-10-23T23:56:26.375Z,18.05
2022-10-23T23:59:28.300Z,18.22
